Rich Fountain, Missouri
Current Conditions -  °F | °C
As of 8:26 PM on Saturday 22 Nov 2014 (Local Time) from KVIH Reporting Station
Light Rain Light Rain  
Wind Chill: 52°   Ceiling: 8000
Heat Index: 52°   Visibility: 10mi
Dew Point: 49°   Wind: 16mph
Humidity: 89%   Direction: 170°S
Pressure: 29.87"   Gusts: NA
Location:  38.3614°N, 91.929°W
Report Text: KVIH 230226Z AUTO 17014KT 10SM -RA SCT012 OVC080 11/09 A2987 RMK AO2 RAE0158B23 P0000 T01110094
Loading
Personal Weather Stations






























Interactive Weather Map New forecast layout! Learn more

10-Day Weather Forecast

Advertisements
Track Severe Weather on mobile